Meadows Of Dan, Virginia
Current Conditions -  °F | °C
As of 9:35 PM on Sunday 21 Dec 2014 (Local Time) from KMWK Reporting Station
Overcast Overcast  
Wind Chill: 37°   Ceiling: 2300
Heat Index: 43°   Visibility: 10mi
Dew Point: 35°   Wind: 9mph
Humidity: 75%   Direction: 60°ENE
Pressure: 30.22"   Gusts: NA
Location:  36.74°N, 80.39°W
Report Text: KMWK 220235Z AUTO 06008KT 10SM OVC023 06/02 A3022 RMK AO2 T00600018
Loading
Personal Weather Stations






























Interactive Weather Map New forecast layout! Learn more

10-Day Weather Forecast

Advertisements
Track Severe Weather on mobile